Latest Weather Observations for Norfolk Island

IDN60801

Issued at 9:05 am EDT Tuesday 27 January 2015 (issued every 30 minutes, with the page automatically refreshed every 10 minutes)

About weather observations | Map of weather stations | Latest weather observations for NSW | Other Formats
Station Details ID: 200288 Name: NORFOLK ISLAND AERO Lat: -29.04 Lon: 167.94 Height: 111.73 m
Data from the previous 72 hours. | See also: Recent months at Norfolk Island
Date/Time
EDT
Temp
°C
App
Temp
°C
Dew
Point
Rel
Hum
%
Delta-T
°C
Wind Press
QNH
hPa
Press
MSL
hPa
Rain
since 9 am
mm
Dir
 
Spd
km/h
Gust
km/h
Spd
kts
Gust
kts
27/08:30am 22.4 19.8 16.9 71 3.4 ENE 26 37 14 20 1007.3 1006.8 0.0
27/08:00am 22.5 20.1 17.3 72 3.2 ENE 26 41 14 22 1006.9 - 0.0
27/07:30am 23.2 19.4 16.7 67 4.0 ENE 32 44 17 24 1007.0 - 0.0
27/07:00am 22.8 20.0 17.3 71 3.4 ENE 28 39 15 21 1006.8 - 0.0
27/06:30am 21.8 19.2 16.9 73 3.0 ENE 26 35 14 19 1006.9 - 0.0
27/06:00am 21.6 19.5 17.1 75 2.8 ENE 24 33 13 18 1006.6 - 0.0
27/05:30am 21.2 17.8 16.8 76 2.7 ENE 30 39 16 21 1006.3 1005.8 0.0
27/05:00am 21.2 18.7 17.0 77 2.6 ENE 26 35 14 19 1006.3 - 0.0
27/04:30am 21.3 18.9 17.3 78 2.5 ENE 26 35 14 19 1006.2 - 0.0
27/04:00am 21.4 18.7 16.5 73 3.0 ENE 26 35 14 19 1006.3 - 0.0
27/03:30am 21.3 19.2 17.1 77 2.6 ENE 24 32 13 17 1006.5 - 0.0
27/03:00am 21.3 19.3 16.4 73 3.0 ENE 22 30 12 16 1006.6 - 0.0
27/02:30am 21.3 18.0 16.0 72 3.2 ENE 28 39 15 21 1006.6 1006.1 0.0
27/02:00am 21.3 18.5 16.4 73 3.0 ENE 26 33 14 18 1006.9 - 0.0
27/01:30am 21.4 19.2 16.8 75 2.8 ENE 24 33 13 18 1007.2 - 0.0
27/01:00am 21.4 18.7 16.7 74 2.9 ENE 26 37 14 20 1007.5 - 0.0
27/12:30am 21.5 18.6 17.1 76 2.7 ENE 28 37 15 20 1007.5 - 0.0
27/12:00am 21.7 19.4 17.5 77 2.6 ENE 26 37 14 20 1007.7 - 0.0
 
Date/Time
EDT
Temp
°C
App
Temp
°C
Dew
Point
Rel
Hum
%
Delta-T
°C
Wind Press
QNH
hPa
Press
MSL
hPa
Rain
since 9 am
mm
Dir
 
Spd
km/h
Gust
km/h
Spd
kts
Gust
kts
26/11:30pm 21.6 19.3 17.7 78 2.4 ENE 26 37 14 20 1007.8 1007.3 0.0
26/11:00pm 21.7 19.2 17.2 75 2.8 ENE 26 33 14 18 1008.1 - 0.0
26/10:30pm 21.8 19.4 17.3 75 2.8 ENE 26 39 14 21 1008.3 - 0.0
26/10:00pm 21.9 19.1 17.4 75 2.8 ENE 28 39 15 21 1008.5 - 0.0
26/09:30pm 22.0 20.2 17.8 77 2.6 ENE 24 35 13 19 1008.5 - 0.0
26/09:00pm 22.0 20.0 18.2 79 2.4 ENE 26 33 14 18 1008.2 - 0.0
26/08:30pm 22.0 20.0 18.2 79 2.4 ENE 26 37 14 20 1008.0 1007.5 0.0
26/08:00pm 22.0 19.4 17.7 76 2.7 ENE 28 39 15 21 1007.8 - 0.0
26/07:30pm 22.0 19.8 17.8 77 2.6 ENE 26 39 14 21 1007.4 - 0.0
26/07:00pm 22.1 20.3 17.8 76 2.7 NE 24 35 13 19 1007.6 - 0.0
26/06:30pm 22.2 20.1 18.1 77 2.6 ENE 26 35 14 19 1007.5 - 0.0
26/06:00pm 22.2 19.8 18.2 78 2.5 ENE 28 39 15 21 1007.5 - 0.0
26/05:30pm 22.4 19.9 18.1 76 2.7 ENE 28 41 15 22 1007.2 1006.7 0.0
26/05:00pm 22.6 20.0 18.7 78 2.5 ENE 30 43 16 23 1007.3 - 0.0
26/04:30pm 22.6 20.1 18.1 76 2.8 ENE 28 41 15 22 1007.4 - 0.0
26/04:00pm 22.8 20.1 18.4 76 2.8 ENE 30 39 16 21 1007.6 - 0.0
26/03:30pm 23.0 19.7 18.4 75 2.9 ENE 33 50 18 27 1007.4 - 0.0
26/03:00pm 23.6 20.4 18.7 74 3.1 ENE 33 48 18 26 1007.5 - 0.0
26/02:30pm 24.3 20.8 18.7 71 3.6 ENE 35 50 19 27 1007.5 1007.0 0.0
26/02:00pm 23.6 20.0 18.6 73 3.2 ENE 35 52 19 28 1007.7 - 0.0
26/01:30pm 23.9 20.7 18.6 72 3.4 ENE 33 52 18 28 1007.9 - 0.0
26/01:07pm 23.4 20.3 18.3 73 3.2 ENE 32 50 17 27 1008.2 - 0.0
26/01:00pm 23.4 19.9 18.7 75 3.0 ENE 35 50 19 27 1008.2 - 0.0
26/12:42pm 23.9 20.7 18.6 72 3.4 ENE 33 52 18 28 1008.3 - 0.0
26/12:30pm 23.6 20.4 18.6 73 3.2 ENE 33 46 18 25 1008.4 - 0.0
26/12:08pm 22.8 19.8 19.0 79 2.4 ENE 33 52 18 28 1008.6 - 0.0
26/12:00pm 22.1 19.6 20.1 88 1.3 ENE 33 48 18 26 1008.6 - 0.0
26/11:30am 23.9 20.7 18.7 72 3.3 ENE 33 44 18 24 1008.9 1008.4 0.0
26/11:06am 23.8 20.7 18.8 73 3.2 ENE 33 52 18 28 1009.1 - 0.0
26/11:00am 23.6 20.1 18.7 74 3.1 ENE 35 50 19 27 1009.2 - 0.0
26/10:50am 24.0 21.0 18.7 72 3.4 ENE 32 52 17 28 1009.2 - 0.0
26/10:30am 24.0 20.7 18.3 70 3.6 NE 33 48 18 26 1009.4 - 0.0
26/10:13am 25.1 22.1 18.7 67 4.1 ENE 32 50 17 27 1009.4 - 0.0
26/10:00am 24.1 20.7 18.1 69 3.8 ENE 33 46 18 25 1009.6 - 0.0
26/09:30am 24.1 21.1 17.7 67 4.0 ENE 30 41 16 22 1009.6 - 0.0
26/09:00am 23.7 19.6 17.3 67 4.0 NE 35 50 19 27 1009.6 - 0.0
26/08:52am 23.1 19.4 17.0 68 3.8 NE 32 50 17 27 1009.6 - 0.0
26/08:30am 23.0 19.1 17.0 69 3.7 ENE 33 46 18 25 1009.5 1009.0 0.2
26/07:30am 22.7 18.8 16.9 70 3.6 ENE 33 44 18 24 1009.9 - 0.2
26/07:09am 22.5 19.0 17.5 73 3.1 ENE 32 50 17 27 1009.8 - 0.2
26/07:00am 22.4 18.5 17.8 75 2.9 ENE 35 52 19 28 1009.8 - 0.2
26/06:33am 22.3 19.2 17.6 75 2.9 ENE 30 48 16 26 1009.7 - 0.2
26/06:30am 22.3 18.8 17.5 74 3.0 ENE 32 48 17 26 1009.7 - 0.2
26/06:00am 22.1 18.5 17.6 75 2.8 ENE 33 52 18 28 1009.5 - 0.2
26/05:55am 22.1 18.6 17.8 76 2.7 ENE 33 52 18 28 1009.4 - 0.2
26/05:30am 22.1 18.2 17.8 76 2.7 ENE 35 48 19 26 1009.1 1008.6 0.2
26/05:00am 22.0 18.0 17.7 76 2.7 ENE 35 48 19 26 1009.0 - 0.2
26/04:30am 22.0 17.8 18.0 78 2.5 ENE 37 52 20 28 1009.0 - 0.2
26/04:00am 22.0 17.7 17.7 76 2.7 ENE 37 50 20 27 1009.0 - 0.2
26/03:31am 22.1 18.5 17.6 75 2.8 ENE 33 52 18 28 1009.1 - 0.2
26/03:30am 22.1 18.1 17.6 75 2.8 ENE 35 52 19 28 1009.1 - 0.2
26/03:15am 22.0 18.0 17.7 76 2.7 ENE 35 54 19 29 1009.2 - 0.2
26/03:00am 22.0 18.2 18.0 78 2.5 ENE 35 50 19 27 1009.3 - 0.2
26/02:30am 22.2 18.3 17.9 76 2.7 NE 35 48 19 26 1009.6 1009.1 0.2
26/02:00am 22.1 18.8 18.3 79 2.4 ENE 33 48 18 26 1009.7 - 0.2
26/01:30am 22.2 19.2 18.7 80 2.2 ENE 32 46 17 25 1010.0 - 0.2
26/01:18am 22.3 19.3 18.7 80 2.3 ENE 32 50 17 27 1010.1 - 0.2
26/01:00am 22.3 20.1 18.8 80 2.2 ENE 28 39 15 21 1010.2 - 0.2
26/12:38am 22.3 20.1 18.8 80 2.2 ENE 28 46 15 25 1010.4 - 0.2
26/12:30am 22.3 19.8 18.8 80 2.2 ENE 30 39 16 21 1010.4 - 0.2
26/12:06am 22.3 19.6 18.5 79 2.4 ENE 30 50 16 27 1010.6 - 0.2
26/12:00am 22.3 19.7 18.7 80 2.3 ENE 30 44 16 24 1010.7 - 0.2
 
Date/Time
EDT
Temp
°C
App
Temp
°C
Dew
Point
Rel
Hum
%
Delta-T
°C
Wind Press
QNH
hPa
Press
MSL
hPa
Rain
since 9 am
mm
Dir
 
Spd
km/h
Gust
km/h
Spd
kts
Gust
kts
25/11:30pm 22.5 19.3 18.2 76 2.7 ENE 32 41 17 22 1011.0 1010.6 0.2
25/11:03pm 22.4 19.0 18.1 76 2.7 ENE 33 54 18 29 1011.1 - 0.2
25/11:00pm 22.4 19.3 18.3 77 2.6 ENE 32 48 17 26 1011.2 - 0.2
25/10:30pm 22.6 19.7 18.0 75 2.9 NE 30 41 16 22 1011.5 - 0.2
25/10:13pm 22.6 19.1 17.5 73 3.2 NE 32 50 17 27 1011.6 - 0.2
25/10:00pm 22.5 18.7 17.3 72 3.2 NE 33 48 18 26 1011.6 - 0.2
25/09:30pm 22.4 18.6 18.1 76 2.7 NE 35 57 19 31 1011.4 - 0.2
25/09:28pm 22.4 18.6 18.1 76 2.7 NE 35 57 19 31 1011.4 - 0.2
25/09:00pm 22.2 19.2 18.6 80 2.3 NE 32 43 17 23 1011.7 - 0.2
25/08:30pm 22.0 18.9 18.5 80 2.2 ENE 32 48 17 26 1011.4 1011.0 0.0
25/08:00pm 22.4 18.5 17.9 75 2.8 NE 35 50 19 27 1011.3 - 0.0
25/07:33pm 22.5 18.8 17.0 71 3.4 NE 32 50 17 27 1011.2 - 0.0
25/07:30pm 22.4 19.2 17.2 72 3.2 NE 30 44 16 24 1011.3 - 0.0
25/07:00pm 22.4 18.8 17.2 72 3.2 NE 32 48 17 26 1011.4 - 0.0
25/06:55pm 22.5 19.6 17.0 71 3.4 NE 28 48 15 26 1011.5 - 0.0
25/06:30pm 22.3 18.7 17.3 73 3.1 NE 32 48 17 26 1011.3 - 0.0
25/06:14pm 22.3 18.7 17.1 72 3.2 NE 32 50 17 27 1011.0 - 0.0
25/06:00pm 22.0 19.4 17.8 77 2.6 NE 28 41 15 22 1010.9 - 0.0
25/05:30pm 22.0 17.7 17.0 73 3.1 NE 35 50 19 27 1010.8 1010.4 0.0
25/05:04pm 22.3 17.8 16.4 69 3.6 NE 35 54 19 29 1010.5 - 0.0
25/05:00pm 22.3 17.3 16.0 67 3.8 NE 37 54 20 29 1010.5 - 0.0
25/04:30pm 22.3 18.4 16.9 71 3.3 NE 33 52 18 28 1010.5 - 0.0
25/04:13pm 22.3 18.6 17.5 74 3.0 NE 33 52 18 28 1010.6 - 0.0
25/04:00pm 22.3 18.0 17.8 75 2.8 NE 37 52 20 28 1010.7 - 0.0
25/03:30pm 22.4 17.3 16.9 71 3.4 NE 39 52 21 28 1010.9 - 0.0
25/03:00pm 22.4 18.3 17.4 73 3.1 NE 35 52 19 28 1011.1 - 0.0
25/02:43pm 22.2 18.8 17.7 75 2.8 ENE 32 50 17 27 1011.3 - 0.0
25/02:30pm 22.1 18.3 17.2 74 3.0 ENE 33 50 18 27 1011.3 1010.9 0.0
25/02:22pm 21.9 18.5 17.6 76 2.7 ENE 32 50 17 27 1011.5 - 0.0
25/02:00pm 21.8 17.9 17.8 78 2.5 ENE 35 50 19 27 1011.8 - 0.0
25/01:37pm 22.1 18.2 17.8 76 2.7 ENE 35 54 19 29 1011.8 - 0.0
25/01:30pm 22.3 17.6 17.8 75 2.8 ENE 39 52 21 28 1011.8 - 0.0
25/01:00pm 22.7 18.1 17.2 71 3.4 ENE 37 52 20 28 1012.0 - 0.0
25/12:30pm 22.9 18.4 17.4 71 3.4 ENE 37 50 20 27 1012.2 - 0.0
25/12:00pm 23.1 19.0 18.2 74 3.1 ENE 37 52 20 28 1012.5 - 0.0
25/11:45am 22.9 19.3 18.6 77 2.7 ENE 35 57 19 31 1012.6 - 0.0
25/11:30am 22.8 18.4 18.5 77 2.7 ENE 39 52 21 28 1012.7 1012.3 0.0
25/11:00am 22.7 18.8 18.8 78 2.5 ENE 37 52 20 28 1012.9 - 0.0
25/10:32am 22.9 19.5 19.1 79 2.4 ENE 35 54 19 29 1013.2 - 0.0
25/10:30am 22.9 19.2 19.1 79 2.4 ENE 37 54 20 29 1013.2 - 0.0
25/10:00am 23.2 19.7 19.5 80 2.4 ENE 37 57 20 31 1013.2 - 0.0
25/09:41am 23.2 18.9 19.5 80 2.4 ENE 41 59 22 32 1013.2 - 0.0
25/09:30am 23.4 18.6 19.3 78 2.6 ENE 43 56 23 30 1013.3 - 0.0
25/09:07am 22.9 19.4 19.6 81 2.1 ENE 37 56 20 30 1013.4 - 0.0
25/09:00am 23.0 19.9 19.7 82 2.1 ENE 35 48 19 26 1013.4 - 0.0
25/08:34am 22.8 19.7 19.7 83 2.0 ENE 35 57 19 31 1013.6 - 0.0
25/08:30am 22.8 19.3 19.7 83 2.0 ENE 37 54 20 29 1013.6 1013.2 4.8
25/08:00am 22.6 20.0 19.8 84 1.8 ENE 33 50 18 27 1013.6 - 4.8
25/07:43am 22.5 19.9 19.9 85 1.7 ENE 33 52 18 28 1013.4 - 4.8
25/07:30am 22.6 20.0 20.0 85 1.7 ENE 33 44 18 24 1013.5 - 4.8
25/07:00am 22.6 20.1 20.1 86 1.6 ENE 33 44 18 24 1013.2 - 4.8
25/06:40am 22.6 20.0 20.0 85 1.7 ENE 33 52 18 28 1012.9 - 4.8
25/06:30am 22.6 19.7 20.1 86 1.6 ENE 35 48 19 26 1012.9 - 4.8
25/06:00am 22.6 19.2 19.8 84 1.8 ENE 37 54 20 29 1012.7 - 4.8
25/05:30am 22.5 19.5 19.9 85 1.7 ENE 35 50 19 27 1012.5 1012.1 4.8
25/05:00am 22.5 19.6 20.0 86 1.6 ENE 35 48 19 26 1012.3 - 4.8
25/04:44am 22.5 19.1 19.9 85 1.7 ENE 37 56 20 30 1012.1 - 4.8
25/04:34am 22.5 19.6 20.0 86 1.6 ENE 35 56 19 30 1012.2 - 4.8
25/04:30am 22.5 20.0 20.2 87 1.5 ENE 33 48 18 26 1012.3 - 4.8
25/04:00am 22.6 20.3 20.1 86 1.6 ENE 32 48 17 26 1012.4 - 4.8
25/03:54am 22.5 20.0 20.2 87 1.5 ENE 33 46 18 25 1012.3 - 4.8
25/03:45am 22.5 19.7 20.2 87 1.5 ENE 35 54 19 29 1012.3 - 4.8
25/03:44am 22.6 19.3 20.1 86 1.6 ENE 37 54 20 29 1012.2 - 4.8
25/03:40am 22.5 19.7 20.3 87 1.4 ENE 35 54 19 29 1012.3 - 4.8
25/03:30am 22.6 19.7 20.1 86 1.6 ENE 35 50 19 27 1012.2 - 4.8
25/03:13am 22.5 20.0 20.2 87 1.5 ENE 33 52 18 28 1012.2 - 4.8
25/03:00am 22.5 20.3 20.3 87 1.4 ENE 32 44 17 24 1012.4 - 4.8
25/02:58am 22.5 20.3 20.3 87 1.4 ENE 32 44 17 24 1012.4 - 4.8
25/02:55am 22.5 20.4 20.5 88 1.3 ENE 32 44 17 24 1012.5 - 4.8
25/02:42am 22.5 20.3 20.3 87 1.4 ENE 32 48 17 26 1012.5 - 4.8
25/02:38am 22.6 20.8 20.4 87 1.4 ENE 30 48 16 26 1012.6 - 4.8
25/02:37am 22.5 20.3 20.3 87 1.4 ENE 32 48 17 26 1012.6 - 4.8
25/02:30am 22.5 20.1 20.3 87 1.4 ENE 33 48 18 26 1012.6 1012.2 4.8
25/02:09am 22.5 19.8 20.5 88 1.3 ENE 35 48 19 26 1012.7 - 4.8
25/02:08am 22.5 20.2 20.5 88 1.3 ENE 33 48 18 26 1012.8 - 4.8
25/02:00am 22.5 20.8 20.5 88 1.3 ENE 30 41 16 22 1012.7 - 4.8
25/01:51am 22.5 20.7 20.3 87 1.4 ENE 30 43 16 23 1012.9 - 4.8
25/01:30am 22.6 21.1 20.3 87 1.5 ENE 28 44 15 24 1013.0 - 4.8
25/01:23am 22.5 20.7 20.3 87 1.4 ENE 30 48 16 26 1013.0 - 4.8
25/01:21am 22.5 20.3 20.3 87 1.4 ENE 32 48 17 26 1013.1 - 4.8
25/01:01am 22.5 20.4 20.5 88 1.3 ENE 32 50 17 27 1013.2 - 4.8
25/01:00am 22.6 20.4 20.3 87 1.5 ENE 32 46 17 25 1013.2 - 4.8
25/12:30am 22.6 19.9 20.4 87 1.4 ENE 35 48 19 26 1013.5 - 4.8
25/12:01am 22.6 20.0 20.6 88 1.3 ENE 35 50 19 27 1013.6 - 4.8
25/12:00am 22.7 20.0 20.4 87 1.5 ENE 35 50 19 27 1013.6 - 4.8
 
Date/Time
EDT
Temp
°C
App
Temp
°C
Dew
Point
Rel
Hum
%
Delta-T
°C
Wind Press
QNH
hPa
Press
MSL
hPa
Rain
since 9 am
mm
Dir
 
Spd
km/h
Gust
km/h
Spd
kts
Gust
kts
24/11:47pm 22.6 20.2 20.4 87 1.4 ENE 33 46 18 25 1013.7 - 4.8
24/11:30pm 22.6 20.8 20.4 87 1.4 ENE 30 46 16 25 1013.6 1013.2 4.8
24/11:02pm 22.6 20.3 20.6 88 1.3 ENE 33 52 18 28 1014.1 - 4.8
24/11:00pm 22.6 20.4 20.8 89 1.2 ENE 33 46 18 25 1014.1 - 4.8
24/10:30pm 22.7 20.6 20.6 88 1.4 ENE 32 43 17 23 1014.5 - 4.8
24/10:00pm 22.6 20.5 20.6 88 1.3 ENE 32 41 17 22 1014.3 - 4.8
24/09:48pm 22.6 21.0 20.8 89 1.2 ENE 30 48 16 26 1014.2 - 4.8
24/09:30pm 22.8 20.6 20.7 88 1.4 ENE 33 44 18 24 1014.2 - 4.8
24/09:22pm 22.7 21.2 21.0 90 1.1 ENE 30 48 16 26 1014.2 - 4.8
24/09:00pm 22.7 20.8 20.9 89 1.2 ENE 32 46 17 25 1014.2 - 4.8
24/08:37pm 22.8 20.9 21.0 89 1.2 ENE 32 50 17 27 1014.1 - 4.8
24/08:30pm 22.8 20.9 21.0 89 1.2 ENE 32 46 17 25 1014.1 1013.6 4.8
24/08:00pm 22.7 20.6 21.0 90 1.1 ENE 33 52 18 28 1013.7 - 4.8
24/07:30pm 22.7 20.8 21.0 90 1.1 ENE 32 44 17 24 1013.5 - 4.8
24/07:00pm 22.7 20.9 21.2 91 1.0 ENE 32 44 17 24 1013.5 - 4.8
24/06:30pm 22.6 22.0 21.2 92 0.9 ENE 26 39 14 21 1013.4 - 4.8
24/06:28pm 22.6 22.4 21.2 92 0.9 ENE 24 39 13 21 1013.4 - 4.8
24/06:00pm 22.5 21.2 21.3 93 0.8 ENE 30 41 16 22 1013.3 - 4.6
24/05:30pm 22.8 21.4 21.1 90 1.1 ENE 30 43 16 23 1012.9 1012.5 3.6
24/05:00pm 22.9 21.8 21.1 89 1.2 ENE 28 39 15 21 1012.7 - 3.6
24/04:30pm 23.0 22.0 21.2 89 1.2 ENE 28 39 15 21 1012.5 - 3.6
24/04:00pm 22.9 22.4 21.5 92 0.9 ENE 26 35 14 19 1012.6 - 3.6
24/03:30pm 22.7 21.7 21.2 91 1.0 ENE 28 37 15 20 1012.6 - 3.6
24/03:00pm 23.0 21.4 21.6 92 0.9 ENE 32 41 17 22 1012.4 - 3.4
24/02:30pm 23.4 20.8 21.4 88 1.3 ENE 37 48 20 26 1012.5 1012.1 3.2
24/02:00pm 23.1 21.2 21.4 90 1.1 ENE 33 46 18 25 1012.6 - 3.2
24/01:30pm 23.0 21.4 21.5 91 1.0 ENE 32 43 17 23 1012.6 - 3.2
24/01:11pm 23.0 21.8 21.6 92 0.9 ENE 30 43 16 23 1012.6 - 3.2
24/01:00pm 23.0 20.8 21.5 91 1.0 ENE 35 46 19 25 1012.6 - 3.2
24/12:48pm 23.0 21.8 21.5 91 1.0 ENE 30 48 16 26 1012.6 - 3.2
24/12:17pm 22.9 21.6 21.4 91 1.0 ENE 30 43 16 23 1012.8 - 3.2
24/12:00pm 23.0 21.9 21.8 93 0.8 ENE 30 43 16 23 1012.7 - 3.2
24/11:37am 22.9 21.4 21.8 93 0.7 ENE 32 50 17 27 1012.7 - 3.2
24/11:30am 22.9 21.3 21.8 93 0.7 ENE 33 44 18 24 1012.7 1012.3 3.2
24/11:00am 22.7 21.1 21.6 93 0.7 ENE 32 56 17 30 1012.7 - 2.8
24/10:35am 22.8 21.8 21.9 95 0.6 ENE 30 48 16 26 1012.5 - 1.6
24/10:30am 22.8 21.3 21.7 93 0.7 NE 32 48 17 26 1012.4 - 1.4
24/10:10am 23.0 21.4 21.5 91 1.0 NE 32 50 17 27 1012.2 - 0.4
24/10:04am 23.2 21.7 21.8 92 0.9 ENE 32 46 17 25 1012.1 - 0.2
24/10:00am 23.2 21.7 21.8 92 0.9 ENE 32 46 17 25 1012.1 - 0.2
24/09:42am 23.1 21.4 21.4 90 1.1 ENE 32 50 17 27 1012.1 - 0.0
24/09:30am 23.0 21.3 21.3 90 1.1 NE 32 43 17 23 1012.2 - 0.0
24/09:17am 23.0 21.2 21.5 91 1.0 ENE 33 52 18 28 1011.9 - 0.0
24/09:00am 23.1 21.0 21.7 92 0.9 ENE 35 52 19 28 1011.7 - 0.0
24/08:33am 23.0 21.2 21.5 91 1.0 ENE 33 52 18 28 1011.8 - 0.0

Other Formats:

Comma delimited format used in spreadsheet applications
http://www.bom.gov.au/fwo/IDN60801/IDN60801.94996.axf

JavaScript Object Notation format (JSON) in row-major order
http://www.bom.gov.au/fwo/IDN60801/IDN60801.94996.json